createdAt,value
2019-04-20T00:02:27.477Z,13.82
2019-04-20T00:07:29.168Z,13.68
2019-04-20T00:12:34.447Z,13.65
2019-04-20T00:17:19.942Z,13.68
2019-04-20T00:22:33.118Z,13.66
2019-04-20T00:27:47.150Z,13.58
2019-04-20T00:32:39.958Z,13.92
2019-04-20T00:37:19.151Z,13.77
2019-04-20T00:42:17.676Z,13.76
2019-04-20T00:47:29.155Z,13.73
2019-04-20T00:52:27.565Z,13.71
2019-04-20T00:57:20.299Z,13.75
2019-04-20T01:02:21.208Z,13.60
2019-04-20T01:07:24.396Z,13.50
2019-04-20T01:12:16.420Z,13.40
2019-04-20T01:17:12.154Z,13.28
2019-04-20T01:22:10.740Z,13.40
2019-04-20T01:27:06.541Z,13.35
2019-04-20T01:32:12.804Z,13.34
2019-04-20T01:37:14.427Z,13.25
2019-04-20T01:41:58.159Z,13.20
2019-04-20T01:46:58.734Z,13.26
2019-04-20T01:52:03.811Z,13.27
2019-04-20T01:57:04.764Z,12.88
2019-04-20T02:02:04.040Z,12.84
2019-04-20T02:06:59.909Z,12.77
2019-04-20T02:11:54.114Z,12.76
2019-04-20T02:16:58.439Z,12.70
2019-04-20T02:22:03.844Z,12.65
2019-04-20T02:26:47.250Z,12.75
2019-04-20T02:42:26.541Z,12.91
2019-04-20T02:47:24.960Z,12.92
2019-04-20T02:57:17.857Z,12.75
2019-04-20T03:01:59.020Z,12.60
2019-04-20T03:06:54.946Z,12.43
2019-04-20T03:12:05.025Z,12.34
2019-04-20T03:16:51.348Z,12.20
2019-04-20T03:21:52.872Z,11.91
2019-04-20T03:26:47.989Z,11.76
2019-04-20T03:32:14.645Z,11.91
2019-04-20T03:36:53.510Z,11.83
2019-04-20T03:41:32.989Z,11.69
2019-04-20T03:46:31.028Z,11.68
2019-04-20T03:51:46.757Z,11.26
2019-04-20T03:57:06.608Z,11.08
2019-04-20T04:02:22.237Z,11.11
2019-04-20T04:06:50.963Z,10.88
2019-04-20T04:11:57.620Z,11.00
2019-04-20T04:16:45.675Z,11.21
2019-04-20T04:21:54.821Z,11.18
2019-04-20T04:26:51.179Z,11.01
2019-04-20T04:32:03.656Z,11.15
2019-04-20T04:36:53.966Z,11.03
2019-04-20T04:41:51.203Z,11.21
2019-04-20T04:46:26.897Z,11.10
2019-04-20T04:51:29.398Z,11.35
2019-04-20T04:56:23.962Z,11.38
2019-04-20T05:01:25.289Z,11.43
2019-04-20T05:06:30.008Z,11.62
2019-04-20T05:11:17.315Z,11.69
2019-04-20T05:16:37.448Z,11.82
2019-04-20T05:21:38.967Z,11.67
2019-04-20T05:31:36.370Z,12.50
2019-04-20T05:36:45.182Z,14.46
2019-04-20T05:41:42.916Z,14.94
2019-04-20T05:46:36.224Z,17.59
2019-04-20T05:51:43.200Z,14.78
2019-04-20T05:56:44.507Z,15.14
2019-04-20T06:01:38.025Z,15.58
2019-04-20T06:06:37.715Z,14.99
2019-04-20T06:11:32.010Z,13.98
2019-04-20T06:16:33.530Z,14.05
2019-04-20T06:21:51.909Z,14.49
2019-04-20T06:26:55.110Z,14.41
2019-04-20T06:31:59.339Z,14.27
2019-04-20T06:36:57.417Z,14.49
2019-04-20T06:51:59.306Z,15.22
2019-04-20T06:56:55.747Z,15.24
2019-04-20T07:02:02.985Z,15.80
2019-04-20T07:07:06.448Z,16.03
2019-04-20T07:11:56.992Z,16.06
2019-04-20T07:17:10.668Z,16.01
2019-04-20T07:22:23.103Z,15.96
2019-04-20T07:27:06.373Z,16.33
2019-04-20T07:31:57.200Z,16.38
2019-04-20T07:37:28.243Z,16.65
2019-04-20T07:42:13.619Z,16.85
2019-04-20T07:51:40.425Z,17.39
2019-04-20T07:56:53.827Z,18.01
2019-04-20T08:06:53.036Z,17.57
2019-04-20T08:12:11.590Z,17.69
2019-04-20T08:17:14.320Z,18.17
2019-04-20T08:21:58.447Z,18.78
2019-04-20T08:26:45.436Z,18.41
2019-04-20T08:31:55.943Z,19.03
2019-04-20T08:36:56.611Z,19.01
2019-04-20T08:41:57.535Z,20.34
2019-04-20T08:47:02.162Z,20.84
2019-04-20T08:51:58.855Z,20.78
2019-04-20T08:56:36.252Z,20.94
2019-04-20T09:01:29.076Z,21.36
2019-04-20T09:06:39.924Z,21.54
2019-04-20T09:11:47.961Z,21.62
2019-04-20T09:16:26.975Z,21.32
2019-04-20T09:21:28.748Z,21.91
2019-04-20T09:26:41.329Z,22.11
2019-04-20T09:31:35.906Z,21.99
2019-04-20T09:36:32.528Z,22.07
2019-04-20T09:41:58.530Z,21.86
2019-04-20T09:46:50.056Z,21.93
2019-04-20T09:51:58.576Z,22.61
2019-04-20T09:57:03.573Z,22.36
2019-04-20T10:01:45.049Z,22.23
2019-04-20T10:06:37.703Z,22.65
2019-04-20T10:11:33.755Z,22.93
2019-04-20T10:16:29.780Z,22.81
2019-04-20T10:21:26.225Z,23.46
2019-04-20T10:26:22.748Z,23.76
2019-04-20T10:31:20.242Z,23.03
2019-04-20T10:36:33.438Z,23.44
2019-04-20T10:41:37.903Z,23.42
2019-04-20T10:46:27.288Z,23.82
2019-04-20T10:51:23.972Z,23.39
2019-04-20T10:56:21.254Z,23.98
2019-04-20T11:01:17.876Z,23.76
2019-04-20T11:06:14.521Z,24.36
2019-04-20T11:11:16.387Z,24.53
2019-04-20T11:16:08.672Z,24.51
2019-04-20T11:21:04.730Z,24.24
2019-04-20T11:26:02.142Z,24.23
2019-04-20T11:30:58.519Z,24.04
2019-04-20T11:35:55.043Z,24.38
2019-04-20T11:41:03.829Z,24.34
2019-04-20T11:45:49.003Z,25.04
2019-04-20T11:50:53.581Z,24.92
2019-04-20T11:55:50.340Z,24.66
2019-04-20T12:00:56.256Z,25.02
2019-04-20T12:05:51.638Z,24.84
2019-04-20T12:10:49.417Z,24.97
2019-04-20T12:15:43.427Z,25.27
2019-04-20T12:20:45.027Z,24.95
2019-04-20T12:25:42.898Z,25.28
2019-04-20T12:30:39.747Z,25.81
2019-04-20T12:35:36.165Z,25.29
2019-04-20T12:40:32.429Z,25.39
2019-04-20T12:45:29.280Z,25.41
2019-04-20T12:50:25.898Z,23.36
2019-04-20T12:55:22.885Z,24.15
2019-04-20T13:00:23.681Z,23.68
2019-04-20T13:05:22.164Z,25.00
2019-04-20T13:10:18.179Z,24.92
2019-04-20T13:15:38.324Z,25.09
2019-04-20T13:20:43.908Z,25.01
2019-04-20T13:25:41.219Z,25.68
2019-04-20T13:30:37.627Z,24.76
2019-04-20T13:35:34.282Z,23.94
2019-04-20T13:40:31.217Z,25.14
2019-04-20T13:45:28.723Z,24.78
2019-04-20T13:50:26.203Z,23.88
2019-04-20T13:55:24.907Z,24.58
2019-04-20T14:00:40.938Z,24.09
2019-04-20T14:05:38.201Z,24.97
2019-04-20T14:10:35.395Z,25.31
2019-04-20T14:15:33.208Z,25.14
2019-04-20T14:20:29.876Z,25.34
2019-04-20T14:25:27.046Z,25.42
2019-04-20T14:30:24.518Z,25.10
2019-04-20T14:35:20.869Z,24.11
2019-04-20T14:40:18.713Z,24.37
2019-04-20T14:45:16.349Z,23.69
2019-04-20T14:50:15.932Z,23.64
2019-04-20T14:55:15.239Z,25.02
2019-04-20T15:00:17.343Z,24.17
2019-04-20T15:05:14.767Z,24.13
2019-04-20T15:10:13.133Z,24.27
2019-04-20T15:15:10.568Z,23.98
2019-04-20T15:20:11.873Z,24.01
2019-04-20T15:25:09.471Z,24.46
2019-04-20T15:30:08.503Z,24.99
2019-04-20T15:35:06.969Z,24.16
2019-04-20T15:40:05.191Z,24.32
2019-04-20T15:45:05.203Z,24.39
2019-04-20T15:50:02.298Z,23.57
2019-04-20T15:55:03.091Z,23.19
2019-04-20T15:59:56.304Z,23.09
2019-04-20T16:04:58.377Z,23.06
2019-04-20T16:09:54.935Z,23.70
2019-04-20T16:14:51.371Z,23.67
2019-04-20T16:19:55.391Z,24.34
2019-04-20T16:24:49.044Z,23.61
2019-04-20T16:29:45.142Z,23.02
2019-04-20T16:34:42.507Z,23.21
2019-04-20T16:39:38.705Z,23.60
2019-04-20T16:44:35.545Z,24.46
2019-04-20T16:49:32.735Z,24.30
2019-04-20T16:54:29.999Z,23.51
2019-04-20T16:59:26.143Z,24.49
2019-04-20T17:04:24.101Z,24.55
2019-04-20T17:09:20.019Z,25.19
2019-04-20T17:14:16.996Z,25.41
2019-04-20T17:19:13.397Z,23.64
2019-04-20T17:24:09.410Z,23.70
2019-04-20T17:29:13.728Z,22.61
2019-04-20T17:34:27.023Z,23.13
2019-04-20T17:39:11.936Z,22.71
2019-04-20T17:44:25.073Z,22.71
2019-04-20T17:49:19.423Z,21.99
2019-04-20T17:54:08.461Z,22.18
2019-04-20T17:59:04.397Z,21.76
2019-04-20T18:04:39.468Z,21.26
2019-04-20T18:09:11.545Z,20.63
2019-04-20T18:14:06.542Z,20.00
2019-04-20T18:19:07.742Z,19.73
2019-04-20T18:23:58.286Z,19.40
2019-04-20T18:29:14.945Z,19.30
2019-04-20T18:33:54.094Z,19.03
2019-04-20T18:38:57.531Z,18.81
2019-04-20T18:43:52.303Z,18.47
2019-04-20T18:49:06.921Z,18.21
2019-04-20T18:53:46.915Z,18.25
2019-04-20T18:58:43.010Z,17.92
2019-04-20T19:03:42.696Z,17.95
2019-04-20T19:08:40.488Z,18.00
2019-04-20T19:13:44.653Z,17.53
2019-04-20T19:19:01.750Z,17.28
2019-04-20T19:23:54.868Z,17.24
2019-04-20T19:28:48.107Z,17.32
2019-04-20T19:34:04.626Z,17.10
2019-04-20T19:38:50.806Z,16.97
2019-04-20T19:43:48.385Z,16.83
2019-04-20T19:48:45.089Z,16.69
2019-04-20T19:53:53.049Z,16.77
2019-04-20T19:58:39.685Z,16.60
2019-04-20T20:03:27.795Z,16.39
2019-04-20T20:08:29.072Z,16.16
2019-04-20T20:13:27.638Z,16.28
2019-04-20T20:18:35.608Z,16.11
2019-04-20T20:23:18.286Z,15.88
2019-04-20T20:28:28.715Z,15.69
2019-04-20T20:33:30.650Z,15.69
2019-04-20T20:38:19.210Z,15.51
2019-04-20T20:43:18.462Z,15.47
2019-04-20T20:48:22.838Z,15.63
2019-04-20T20:53:14.205Z,15.28
2019-04-20T20:58:10.620Z,15.36
2019-04-20T21:03:03.928Z,15.44
2019-04-20T21:07:57.479Z,15.18
2019-04-20T21:12:58.978Z,15.20
2019-04-20T21:18:15.890Z,14.90
2019-04-20T21:23:02.658Z,14.80
2019-04-20T21:27:47.022Z,14.87
2019-04-20T21:32:46.987Z,14.60
2019-04-20T21:37:48.319Z,14.70
2019-04-20T21:42:44.308Z,14.47
2019-04-20T21:47:39.782Z,14.14
2019-04-20T21:52:41.294Z,14.22
2019-04-20T21:57:39.062Z,14.10
2019-04-20T22:02:37.700Z,14.04
2019-04-20T22:07:28.304Z,14.03
2019-04-20T22:12:30.606Z,13.86
2019-04-20T22:17:28.580Z,14.02
2019-04-20T22:22:41.118Z,13.92
2019-04-20T22:27:22.427Z,13.82
2019-04-20T22:32:17.361Z,13.50
2019-04-20T22:37:20.811Z,13.32
2019-04-20T22:42:14.313Z,13.00
2019-04-20T22:47:14.028Z,13.13
2019-04-20T22:52:27.821Z,12.80
2019-04-20T22:57:22.260Z,12.79
2019-04-20T23:02:05.627Z,12.53
2019-04-20T23:07:02.982Z,12.64
2019-04-20T23:12:04.919Z,12.30
2019-04-20T23:16:57.584Z,12.39
2019-04-20T23:21:59.646Z,12.29
2019-04-20T23:26:53.063Z,11.92
2019-04-20T23:31:54.968Z,11.68
2019-04-20T23:36:50.335Z,11.93
2019-04-20T23:41:53.754Z,11.84
2019-04-20T23:46:45.341Z,11.34
2019-04-20T23:52:03.626Z,11.22
2019-04-20T23:56:39.778Z,11.00
